Time;durP1;ratioP1;P1;durP2;ratioP2;P2;SDS_P1;SDS_P2;PMS_P1;PMS_P2;Temp;Humidity;BMP_temperature;BMP_pressure;BME280_temperature;BME280_humidity;BME280_pressure;Samples;Min_cycle;Max_cycle;Signal;HPM_P1;HPM_P2
2023/01/25 00:00:38;;;;;;;61.00;44.77;;;;;;;;;;5177738;28;20031;-77
2023/01/25 00:03:09;;;;;;;65.57;47.67;;;;;;;;;;5177502;28;20111;-78
2023/01/25 00:05:40;;;;;;;60.70;45.60;;;;;;;;;;5176865;28;20026;-78
2023/01/25 00:08:11;;;;;;;64.77;46.77;;;;;;;;;;5177472;28;20118;-78
2023/01/25 00:10:42;;;;;;;60.97;45.33;;;;;;;;;;5176589;28;20066;-78
2023/01/25 00:13:14;;;;;;;57.83;43.67;;;;;;;;;;5177346;28;20022;-78
2023/01/25 00:15:45;;;;;;;58.63;43.20;;;;;;;;;;5177460;28;20497;-78
2023/01/25 00:18:16;;;;;;;61.70;44.73;;;;;;;;;;5176479;28;20035;-78
2023/01/25 00:20:47;;;;;;;59.30;44.77;;;;;;;;;;5177235;28;20023;-78
2023/01/25 00:23:19;;;;;;;66.63;49.03;;;;;;;;;;5177440;28;20050;-77
2023/01/25 00:25:57;;;;;;;63.10;45.77;;;;;;;;;;5176453;28;20101;-78
2023/01/25 00:28:28;;;;;;;65.77;46.90;;;;;;;;;;5176845;28;20048;-78
2023/01/25 00:30:59;;;;;;;68.00;49.60;;;;;;;;;;5177325;28;20134;-78
2023/01/25 00:33:37;;;;;;;66.60;47.97;;;;;;;;;;5175360;28;20034;-77
2023/01/25 00:36:26;;;;;;;64.23;45.97;;;;;;;;;;5177198;28;20023;-78
2023/01/25 00:38:58;;;;;;;60.00;42.67;;;;;;;;;;5176665;28;20444;-78
2023/01/25 00:41:29;;;;;;;57.20;42.83;;;;;;;;;;5176519;28;20019;-78
2023/01/25 00:44:00;;;;;;;62.87;45.87;;;;;;;;;;5176818;28;20034;-78
2023/01/25 00:46:31;;;;;;;62.67;45.43;;;;;;;;;;5176028;28;20510;-78
2023/01/25 00:49:02;;;;;;;60.07;45.13;;;;;;;;;;5177083;28;20470;-78
2023/01/25 00:51:34;;;;;;;64.30;46.23;;;;;;;;;;5176868;28;20086;-78
2023/01/25 00:54:05;;;;;;;69.23;49.37;;;;;;;;;;5175971;28;20076;-78
2023/01/25 00:56:36;;;;;;;68.33;50.23;;;;;;;;;;5176568;28;20023;-78
2023/01/25 00:59:08;;;;;;;69.97;49.97;;;;;;;;;;5176862;28;20489;-78
2023/01/25 01:01:40;;;;;;;66.53;48.23;;;;;;;;;;5175818;28;20034;-78
2023/01/25 01:04:12;;;;;;;64.87;46.00;;;;;;;;;;5176766;28;20083;-78
2023/01/25 01:06:43;;;;;;;73.50;50.17;;;;;;;;;;5175871;28;20030;-78
2023/01/25 01:09:15;;;;;;;75.43;53.67;;;;;;;;;;5176740;28;20091;-78
2023/01/25 01:11:46;;;;;;;74.53;52.77;;;;;;;;;;5176610;28;20023;-78
2023/01/25 01:14:18;;;;;;;74.13;52.30;;;;;;;;;;5175668;28;20027;-78
2023/01/25 01:16:49;;;;;;;73.83;52.37;;;;;;;;;;5176323;28;20053;-78
2023/01/25 01:19:20;;;;;;;70.77;50.37;;;;;;;;;;5176597;28;20058;-78
2023/01/25 01:21:52;;;;;;;71.33;50.03;;;;;;;;;;5175878;28;20015;-78
2023/01/25 01:24:23;;;;;;;68.20;49.17;;;;;;;;;;5176404;28;20095;-78
2023/01/25 01:26:54;;;;;;;69.73;48.63;;;;;;;;;;5176509;28;20060;-78
2023/01/25 01:29:25;;;;;;;66.87;48.07;;;;;;;;;;5175167;28;20031;-78
2023/01/25 01:31:56;;;;;;;69.97;48.63;;;;;;;;;;5176726;28;20026;-78
2023/01/25 01:34:28;;;;;;;64.43;47.27;;;;;;;;;;5175999;28;20027;-77
2023/01/25 01:36:59;;;;;;;68.87;48.73;;;;;;;;;;5175794;28;20034;-78
2023/01/25 01:39:30;;;;;;;74.23;51.47;;;;;;;;;;5176048;28;20018;-78
2023/01/25 01:42:01;;;;;;;69.27;49.33;;;;;;;;;;5175364;28;20022;-78
2023/01/25 01:44:42;;;;;;;69.97;49.83;;;;;;;;;;5175888;28;20105;-78
2023/01/25 01:47:16;;;;;;;72.63;51.60;;;;;;;;;;5175961;28;20019;-78
2023/01/25 01:49:53;;;;;;;75.47;52.77;;;;;;;;;;5175092;28;20033;-78
2023/01/25 01:52:27;;;;;;;77.40;54.30;;;;;;;;;;5175871;28;20382;-77
2023/01/25 01:55:04;;;;;;;73.57;52.47;;;;;;;;;;5176371;28;20029;-78
2023/01/25 01:58:02;;;;;;;74.53;52.63;;;;;;;;;;5175144;28;20516;-78
2023/01/25 02:00:35;;;;;;;76.40;52.63;;;;;;;;;;5178156;28;20114;-78
2023/01/25 02:03:07;;;;;;;78.27;53.23;;;;;;;;;;5174951;28;20058;-78
2023/01/25 02:05:57;;;;;;;73.60;49.77;;;;;;;;;;5175941;28;20027;-78
2023/01/25 02:08:30;;;;;;;73.90;52.73;;;;;;;;;;5175507;28;20481;-78
2023/01/25 02:11:03;;;;;;;74.53;52.73;;;;;;;;;;5174866;28;20068;-78
2023/01/25 02:13:34;;;;;;;73.47;50.83;;;;;;;;;;5175881;28;20022;-78
2023/01/25 02:16:12;;;;;;;73.60;50.93;;;;;;;;;;5175752;28;20031;-78
2023/01/25 02:18:44;;;;;;;67.53;47.33;;;;;;;;;;5174976;28;20078;-78
2023/01/25 02:21:15;;;;;;;74.67;50.03;;;;;;;;;;5175558;28;20058;-78
2023/01/25 02:23:46;;;;;;;72.27;49.47;;;;;;;;;;5175493;28;20026;-78
2023/01/25 02:26:18;;;;;;;72.92;50.78;;;;;;;;;;5174909;28;20394;-78
2023/01/25 02:28:52;;;;;;;76.23;52.07;;;;;;;;;;5175636;28;20462;-78
2023/01/25 02:31:24;;;;;;;79.97;53.67;;;;;;;;;;5174643;28;20092;-78
2023/01/25 02:33:55;;;;;;;79.90;54.27;;;;;;;;;;5175694;28;20015;-78
2023/01/25 02:36:30;;;;;;;79.07;55.13;;;;;;;;;;5174961;28;20027;-77
2023/01/25 02:39:04;;;;;;;78.27;54.50;;;;;;;;;;5174567;28;20027;-78
2023/01/25 02:41:36;;;;;;;81.32;54.08;;;;;;;;;;5175416;28;20136;-78
2023/01/25 02:44:12;;;;;;;79.13;53.07;;;;;;;;;;5175294;28;20481;-78
2023/01/25 02:46:44;;;;;;;74.93;50.97;;;;;;;;;;5174453;28;20101;-78
2023/01/25 02:49:15;;;;;;;75.73;52.23;;;;;;;;;;5175347;28;20101;-78
2023/01/25 02:51:48;;;;;;;78.70;54.53;;;;;;;;;;5175416;28;20389;-78
2023/01/25 02:54:19;;;;;;;74.47;51.03;;;;;;;;;;5174422;28;20434;-78
2023/01/25 02:56:51;;;;;;;74.45;50.85;;;;;;;;;;5175842;28;20046;-78
2023/01/25 02:59:22;;;;;;;85.13;56.23;;;;;;;;;;5177813;28;20019;-78
2023/01/25 03:01:53;;;;;;;79.87;53.87;;;;;;;;;;5178652;28;20035;-78
2023/01/25 03:04:25;;;;;;;79.13;53.13;;;;;;;;;;5178327;28;20454;-78
2023/01/25 03:06:56;;;;;;;78.57;52.77;;;;;;;;;;5178197;28;20113;-79
2023/01/25 03:09:28;;;;;;;82.30;55.83;;;;;;;;;;5178193;28;20128;-78
2023/01/25 03:11:59;;;;;;;80.83;53.47;;;;;;;;;;5178530;28;20054;-78
2023/01/25 03:14:30;;;;;;;90.83;59.20;;;;;;;;;;5177763;28;20389;-77
2023/01/25 03:17:01;;;;;;;83.20;56.10;;;;;;;;;;5178110;28;20085;-77
2023/01/25 03:19:32;;;;;;;82.23;55.80;;;;;;;;;;5178439;28;20462;-78
2023/01/25 03:22:05;;;;;;;83.70;56.60;;;;;;;;;;5177544;28;20023;-77
2023/01/25 03:24:36;;;;;;;86.40;57.83;;;;;;;;;;5178340;28;20026;-78
2023/01/25 03:27:12;;;;;;;85.73;57.07;;;;;;;;;;5178336;28;20027;-78
2023/01/25 03:29:43;;;;;;;79.73;53.80;;;;;;;;;;5177402;28;20023;-77
2023/01/25 03:32:15;;;;;;;78.30;53.17;;;;;;;;;;5177966;28;20030;-77
2023/01/25 03:34:47;;;;;;;85.10;55.57;;;;;;;;;;5177666;28;20351;-78
2023/01/25 03:37:18;;;;;;;82.87;56.20;;;;;;;;;;5178014;28;20073;-78
2023/01/25 03:39:49;;;;;;;86.43;56.27;;;;;;;;;;5178076;28;20046;-78
2023/01/25 03:42:21;;;;;;;83.20;55.73;;;;;;;;;;5177299;28;20030;-78
2023/01/25 03:44:52;;;;;;;81.53;54.93;;;;;;;;;;5177858;28;20042;-78
2023/01/25 03:47:23;;;;;;;81.86;55.18;;;;;;;;;;5177837;28;20050;-78
2023/01/25 03:49:54;;;;;;;88.60;59.27;;;;;;;;;;5177413;28;20041;-78
2023/01/25 03:52:26;;;;;;;88.43;59.13;;;;;;;;;;5177142;28;20035;-77
2023/01/25 03:54:57;;;;;;;88.80;57.50;;;;;;;;;;5178080;28;20086;-78
2023/01/25 03:57:29;;;;;;;78.40;53.42;;;;;;;;;;5176388;28;20110;-78
2023/01/25 04:00:00;;;;;;;79.37;52.70;;;;;;;;;;5177641;28;20022;-78
2023/01/25 04:02:31;;;;;;;87.23;57.67;;;;;;;;;;5176618;28;20131;-78
2023/01/25 04:05:02;;;;;;;81.63;53.40;;;;;;;;;;5177642;28;20390;-78
2023/01/25 04:07:33;;;;;;;78.50;52.90;;;;;;;;;;5177415;28;20027;-78
2023/01/25 04:10:05;;;;;;;85.60;56.53;;;;;;;;;;5176679;28;20023;-78
2023/01/25 04:12:37;;;;;;;81.47;55.07;;;;;;;;;;5177657;28;20521;-78
2023/01/25 04:15:08;;;;;;;79.73;51.77;;;;;;;;;;5177520;28;20015;-77
2023/01/25 04:17:39;;;;;;;76.67;52.10;;;;;;;;;;5176601;28;20034;-78
2023/01/25 04:20:11;;;;;;;83.40;55.57;;;;;;;;;;5177437;28;20027;-77
2023/01/25 04:22:42;;;;;;;87.87;56.70;;;;;;;;;;5177468;28;20022;-77
2023/01/25 04:25:13;;;;;;;79.60;53.80;;;;;;;;;;5176558;28;20023;-77
2023/01/25 04:27:45;;;;;;;79.53;52.67;;;;;;;;;;5177451;28;20030;-78
2023/01/25 04:30:16;;;;;;;79.13;51.60;;;;;;;;;;5177286;28;20109;-78
2023/01/25 04:32:47;;;;;;;84.17;56.27;;;;;;;;;;5176327;28;20027;-77
2023/01/25 04:35:19;;;;;;;82.40;54.97;;;;;;;;;;5177142;28;20015;-78
2023/01/25 04:37:54;;;;;;;77.13;52.30;;;;;;;;;;5176505;28;20497;-77
2023/01/25 04:40:26;;;;;;;76.27;50.33;;;;;;;;;;5176705;28;20056;-78
2023/01/25 04:42:57;;;;;;;76.23;51.67;;;;;;;;;;5177349;28;20022;-76
2023/01/25 04:45:28;;;;;;;76.60;50.13;;;;;;;;;;5176243;28;20030;-78
2023/01/25 04:48:00;;;;;;;76.67;52.00;;;;;;;;;;5177323;28;20426;-78
2023/01/25 04:50:32;;;;;;;79.60;51.67;;;;;;;;;;5177011;28;20027;-76
2023/01/25 04:53:05;;;;;;;85.60;55.70;;;;;;;;;;5176315;28;20019;-76
2023/01/25 04:55:36;;;;;;;80.10;52.67;;;;;;;;;;5176923;28;20029;-77
2023/01/25 04:58:07;;;;;;;80.50;52.63;;;;;;;;;;5176786;28;20034;-76
2023/01/25 05:00:38;;;;;;;75.90;49.53;;;;;;;;;;5176282;28;20627;-77
2023/01/25 05:03:09;;;;;;;73.37;50.27;;;;;;;;;;5176588;28;20055;-76
2023/01/25 05:05:44;;;;;;;74.43;49.73;;;;;;;;;;5176559;28;20027;-77
2023/01/25 05:08:15;;;;;;;71.13;48.33;;;;;;;;;;5176523;28;20448;-77
2023/01/25 05:10:46;;;;;;;73.77;47.73;;;;;;;;;;5176730;28;20101;-78
2023/01/25 05:13:17;;;;;;;72.97;49.20;;;;;;;;;;5176099;28;20087;-76
2023/01/25 05:15:49;;;;;;;74.53;49.20;;;;;;;;;;5176706;28;20034;-78
2023/01/25 05:18:20;;;;;;;74.50;49.23;;;;;;;;;;5176334;28;20111;-77
2023/01/25 05:20:55;;;;;;;70.06;47.88;;;;;;;;;;5175067;28;20023;-77
2023/01/25 05:23:26;;;;;;;73.30;49.83;;;;;;;;;;5176358;28;20023;-79
2023/01/25 05:28:47;;;;;;;71.77;48.03;;;;;;;;;;5176041;28;20030;-77
2023/01/25 05:31:18;;;;;;;75.47;50.47;;;;;;;;;;5176627;28;20022;-77
2023/01/25 05:33:49;;;;;;;71.77;49.90;;;;;;;;;;5176069;28;20109;-77
2023/01/25 05:36:20;;;;;;;73.30;48.80;;;;;;;;;;5175953;28;20470;-76
2023/01/25 05:38:52;;;;;;;73.03;50.30;;;;;;;;;;5176120;28;20038;-77
2023/01/25 05:41:23;;;;;;;78.77;51.77;;;;;;;;;;5175406;28;20015;-76
2023/01/25 05:43:54;;;;;;;76.83;50.93;;;;;;;;;;5176851;28;20398;-77
2023/01/25 05:46:26;;;;;;;76.53;51.53;;;;;;;;;;5175790;28;20030;-77
2023/01/25 05:48:57;;;;;;;75.00;50.93;;;;;;;;;;5175847;28;20458;-77
2023/01/25 05:51:28;;;;;;;73.50;49.37;;;;;;;;;;5176026;28;20044;-78
2023/01/25 05:54:00;;;;;;;80.23;52.83;;;;;;;;;;5176240;28;20049;-77
2023/01/25 05:56:32;;;;;;;79.53;51.93;;;;;;;;;;5175075;28;20065;-77
2023/01/25 05:59:04;;;;;;;71.90;49.10;;;;;;;;;;5175931;28;20030;-77
2023/01/25 06:01:35;;;;;;;84.10;54.17;;;;;;;;;;5175912;28;20027;-77
2023/01/25 06:04:06;;;;;;;79.70;53.23;;;;;;;;;;5175222;28;20084;-78
2023/01/25 06:06:37;;;;;;;78.67;52.30;;;;;;;;;;5175698;28;20030;-77
2023/01/25 06:09:09;;;;;;;75.83;51.47;;;;;;;;;;5175192;28;20034;-77
2023/01/25 06:11:44;;;;;;;78.37;52.23;;;;;;;;;;5175788;28;20019;-77
2023/01/25 06:14:15;;;;;;;72.07;49.23;;;;;;;;;;5175861;28;20023;-77
2023/01/25 06:16:46;;;;;;;71.20;48.57;;;;;;;;;;5174743;28;20100;-77
2023/01/25 06:19:17;;;;;;;72.58;49.24;;;;;;;;;;5175920;28;20031;-77
2023/01/25 06:21:49;;;;;;;71.20;48.57;;;;;;;;;;5175625;28;20027;-78
2023/01/25 06:24:20;;;;;;;78.10;51.63;;;;;;;;;;5174877;28;20431;-77
2023/01/25 06:26:51;;;;;;;78.53;50.77;;;;;;;;;;5175547;28;20100;-77
2023/01/25 06:29:22;;;;;;;71.70;48.40;;;;;;;;;;5175584;28;20072;-77
2023/01/25 06:31:54;;;;;;;74.00;48.57;;;;;;;;;;5175900;28;20023;-77
2023/01/25 06:34:25;;;;;;;72.97;49.07;;;;;;;;;;5178848;28;20019;-77
2023/01/25 06:36:56;;;;;;;72.43;48.03;;;;;;;;;;5179204;28;20030;-77
2023/01/25 06:39:28;;;;;;;69.27;45.97;;;;;;;;;;5177939;28;20422;-77
2023/01/25 06:41:59;;;;;;;71.70;48.33;;;;;;;;;;5178888;28;20034;-77
2023/01/25 06:44:30;;;;;;;74.33;49.53;;;;;;;;;;5178097;28;20030;-78
2023/01/25 06:47:02;;;;;;;72.07;49.17;;;;;;;;;;5178908;28;20015;-77
2023/01/25 06:49:33;;;;;;;68.67;46.37;;;;;;;;;;5179016;28;20023;-78
2023/01/25 06:52:04;;;;;;;73.13;49.40;;;;;;;;;;5178275;28;20027;-78
2023/01/25 06:54:35;;;;;;;71.20;48.80;;;;;;;;;;5178780;28;20088;-77
2023/01/25 06:57:09;;;;;;;73.30;47.77;;;;;;;;;;5178585;28;20031;-78
2023/01/25 06:59:40;;;;;;;74.73;48.73;;;;;;;;;;5177972;28;20019;-77
2023/01/25 07:02:13;;;;;;;69.80;46.57;;;;;;;;;;5178332;28;20064;-78
2023/01/25 07:04:44;;;;;;;71.60;46.03;;;;;;;;;;5178473;28;20026;-77
2023/01/25 07:07:16;;;;;;;71.67;48.63;;;;;;;;;;5177895;28;20031;-78
2023/01/25 07:09:47;;;;;;;70.27;47.27;;;;;;;;;;5178556;28;20023;-78
2023/01/25 07:12:19;;;;;;;65.03;44.17;;;;;;;;;;5178391;28;20473;-78
2023/01/25 07:14:50;;;;;;;64.63;44.60;;;;;;;;;;5178156;28;20050;-78
2023/01/25 07:17:21;;;;;;;62.50;43.53;;;;;;;;;;5178178;28;20520;-78
2023/01/25 07:19:52;;;;;;;66.93;46.37;;;;;;;;;;5177432;28;20030;-78
2023/01/25 07:22:24;;;;;;;70.63;47.83;;;;;;;;;;5178140;28;20533;-78
2023/01/25 07:24:56;;;;;;;66.30;44.53;;;;;;;;;;5178423;28;20031;-78
2023/01/25 07:27:31;;;;;;;64.10;42.70;;;;;;;;;;5177031;28;20437;-78
2023/01/25 07:30:02;;;;;;;65.90;44.37;;;;;;;;;;5177976;28;20459;-78
2023/01/25 07:32:33;;;;;;;66.67;44.93;;;;;;;;;;5178090;28;20030;-78
2023/01/25 07:35:05;;;;;;;63.37;43.87;;;;;;;;;;5177144;28;20069;-78
2023/01/25 07:37:36;;;;;;;67.97;45.60;;;;;;;;;;5177725;28;20492;-78
2023/01/25 07:40:08;;;;;;;68.20;45.33;;;;;;;;;;5177864;28;20058;-78
2023/01/25 07:42:39;;;;;;;69.13;46.63;;;;;;;;;;5176875;28;20338;-78
2023/01/25 07:45:10;;;;;;;65.90;44.80;;;;;;;;;;5177925;28;20023;-78
2023/01/25 07:47:42;;;;;;;69.70;47.13;;;;;;;;;;5176893;28;20027;-78
2023/01/25 07:50:13;;;;;;;73.00;48.93;;;;;;;;;;5177424;28;20046;-78
2023/01/25 07:52:44;;;;;;;68.97;45.47;;;;;;;;;;5177477;28;20030;-78
2023/01/25 07:55:16;;;;;;;66.80;46.13;;;;;;;;;;5177027;28;20462;-78
2023/01/25 07:57:47;;;;;;;66.43;43.70;;;;;;;;;;5177486;28;20114;-78
2023/01/25 08:00:18;;;;;;;65.73;44.93;;;;;;;;;;5177136;28;20023;-78
2023/01/25 08:02:50;;;;;;;65.90;45.37;;;;;;;;;;5176489;28;20088;-78
2023/01/25 08:05:21;;;;;;;56.97;39.90;;;;;;;;;;5177294;28;20110;-78
2023/01/25 08:07:52;;;;;;;60.67;41.93;;;;;;;;;;5177652;28;20413;-78
2023/01/25 08:10:23;;;;;;;64.60;43.50;;;;;;;;;;5176540;28;20038;-78
2023/01/25 08:12:54;;;;;;;64.23;42.57;;;;;;;;;;5177717;28;20110;-78
2023/01/25 08:15:25;;;;;;;66.87;43.67;;;;;;;;;;5177130;28;20022;-77
2023/01/25 08:18:00;;;;;;;70.97;47.17;;;;;;;;;;5176769;28;20054;-77
2023/01/25 08:20:31;;;;;;;65.57;43.93;;;;;;;;;;5177175;28;20030;-78
2023/01/25 08:23:02;;;;;;;66.53;45.07;;;;;;;;;;5176339;28;20076;-77
2023/01/25 08:25:33;;;;;;;67.90;44.90;;;;;;;;;;5177055;28;20462;-77
2023/01/25 08:28:04;;;;;;;65.23;42.60;;;;;;;;;;5176967;28;20083;-77
2023/01/25 08:30:36;;;;;;;64.17;43.27;;;;;;;;;;5176528;28;20015;-79
2023/01/25 08:33:07;;;;;;;68.53;43.97;;;;;;;;;;5177019;28;20030;-77
2023/01/25 08:35:38;;;;;;;67.63;44.80;;;;;;;;;;5177065;28;20113;-78
2023/01/25 08:38:09;;;;;;;74.27;46.30;;;;;;;;;;5175804;28;20038;-77
2023/01/25 08:40:40;;;;;;;71.17;46.37;;;;;;;;;;5176632;28;20111;-77
2023/01/25 08:43:12;;;;;;;70.20;44.83;;;;;;;;;;5176805;28;20022;-76
2023/01/25 08:45:43;;;;;;;64.93;43.00;;;;;;;;;;5175940;28;20125;-77
2023/01/25 08:48:15;;;;;;;64.63;45.37;;;;;;;;;;5176639;28;20500;-77
2023/01/25 08:50:46;;;;;;;67.17;44.13;;;;;;;;;;5176456;28;20031;-78
2023/01/25 08:53:18;;;;;;;65.37;44.73;;;;;;;;;;5176319;28;20130;-77
2023/01/25 08:55:49;;;;;;;66.67;45.53;;;;;;;;;;5176062;28;20389;-78
2023/01/25 08:58:21;;;;;;;64.73;43.30;;;;;;;;;;5175585;28;20121;-77
2023/01/25 09:00:52;;;;;;;67.20;44.27;;;;;;;;;;5176608;28;20458;-77
2023/01/25 09:03:23;;;;;;;70.77;45.87;;;;;;;;;;5176270;28;20097;-77
2023/01/25 09:05:54;;;;;;;72.47;47.47;;;;;;;;;;5176229;28;20022;-77
2023/01/25 09:08:25;;;;;;;71.43;46.57;;;;;;;;;;5176395;28;20031;-77
2023/01/25 09:11:04;;;;;;;69.33;46.23;;;;;;;;;;5169469;28;20026;-77
2023/01/25 09:13:35;;;;;;;67.60;42.90;;;;;;;;;;5174338;28;20034;-77
2023/01/25 09:16:08;;;;;;;70.43;46.23;;;;;;;;;;5176065;28;20366;-78
2023/01/25 09:18:41;;;;;;;66.23;45.10;;;;;;;;;;5176217;28;20478;-77
2023/01/25 09:21:13;;;;;;;63.00;42.70;;;;;;;;;;5186087;28;20021;-77
2023/01/25 09:23:48;;;;;;;76.17;48.87;;;;;;;;;;5196175;28;20022;-79
2023/01/25 09:26:19;;;;;;;78.63;49.73;;;;;;;;;;5194937;28;20034;-78
2023/01/25 09:28:51;;;;;;;71.57;47.37;;;;;;;;;;5195982;28;20022;-78
2023/01/25 09:31:23;;;;;;;73.13;47.20;;;;;;;;;;5196162;28;20029;-78
2023/01/25 09:33:55;;;;;;;72.77;47.27;;;;;;;;;;5196149;28;20102;-79
2023/01/25 09:36:26;;;;;;;72.60;46.27;;;;;;;;;;5196055;28;20056;-77
2023/01/25 09:38:57;;;;;;;70.53;45.73;;;;;;;;;;5196091;28;20062;-78
2023/01/25 09:41:40;;;;;;;71.60;46.80;;;;;;;;;;5195495;28;20022;-77
2023/01/25 09:44:12;;;;;;;70.13;46.60;;;;;;;;;;5196204;28;20034;-78
2023/01/25 09:46:48;;;;;;;73.97;47.83;;;;;;;;;;5194628;28;20041;-77
2023/01/25 09:49:20;;;;;;;75.80;48.63;;;;;;;;;;5194322;28;20054;-78
2023/01/25 09:52:09;;;;;;;74.76;46.96;;;;;;;;;;5196276;28;20095;-77
2023/01/25 09:54:43;;;;;;;77.87;48.40;;;;;;;;;;5195419;28;20371;-77
2023/01/25 09:57:25;;;;;;;70.80;46.97;;;;;;;;;;5195942;28;20034;-77
2023/01/25 09:59:58;;;;;;;69.33;44.53;;;;;;;;;;5196300;28;20369;-77
2023/01/25 10:02:59;;;;;;;69.87;46.03;;;;;;;;;;5194798;28;20042;-78
2023/01/25 10:05:36;;;;;;;75.17;49.03;;;;;;;;;;5204451;28;20034;-79
2023/01/25 10:08:11;;;;;;;72.07;44.73;;;;;;;;;;5199304;28;20029;-79
2023/01/25 10:10:43;;;;;;;77.87;49.27;;;;;;;;;;5199317;28;20075;-78
2023/01/25 10:13:16;;;;;;;79.43;48.77;;;;;;;;;;5199454;28;20023;-77
2023/01/25 10:15:49;;;;;;;73.37;47.07;;;;;;;;;;5198810;28;20071;-76
2023/01/25 10:18:43;;;;;;;76.23;48.03;;;;;;;;;;5199248;28;20389;-77
2023/01/25 10:21:20;;;;;;;74.00;45.83;;;;;;;;;;5199372;28;20041;-76
2023/01/25 10:24:00;;;;;;;76.83;48.50;;;;;;;;;;5198643;28;20420;-76
2023/01/25 10:26:32;;;;;;;77.80;48.87;;;;;;;;;;5198965;28;20139;-77
2023/01/25 10:29:09;;;;;;;81.87;50.77;;;;;;;;;;5198754;28;20018;-77
2023/01/25 10:31:54;;;;;;;77.07;48.17;;;;;;;;;;5198281;28;20033;-77
2023/01/25 10:34:45;;;;;;;79.23;49.80;;;;;;;;;;5198928;28;20045;-77
2023/01/25 10:37:28;;;;;;;77.07;48.13;;;;;;;;;;5197707;28;20133;-76
2023/01/25 10:40:03;;;;;;;76.10;46.70;;;;;;;;;;5199315;28;20027;-76
2023/01/25 10:42:40;;;;;;;76.00;47.93;;;;;;;;;;5198762;28;20048;-77
2023/01/25 10:45:12;;;;;;;75.10;46.70;;;;;;;;;;5198370;28;20490;-76
2023/01/25 10:47:49;;;;;;;70.93;47.07;;;;;;;;;;5198843;28;20489;-77
2023/01/25 10:50:49;;;;;;;72.80;44.70;;;;;;;;;;5198754;28;20027;-76
2023/01/25 10:53:22;;;;;;;71.80;46.40;;;;;;;;;;5207451;28;20461;-77
2023/01/25 10:55:58;;;;;;;70.20;44.63;;;;;;;;;;5198336;28;20044;-77
2023/01/25 10:58:44;;;;;;;73.90;48.30;;;;;;;;;;5197542;28;20127;-77
2023/01/25 11:01:29;;;;;;;73.70;46.00;;;;;;;;;;5198568;28;20023;-77
2023/01/25 11:04:01;;;;;;;68.53;45.97;;;;;;;;;;5198458;28;20113;-78
2023/01/25 11:06:37;;;;;;;76.87;49.27;;;;;;;;;;5197873;28;20049;-76
2023/01/25 11:09:20;;;;;;;69.23;44.57;;;;;;;;;;5198853;28;20014;-77
2023/01/25 11:11:55;;;;;;;71.50;45.17;;;;;;;;;;5198047;28;20034;-78
2023/01/25 11:14:28;;;;;;;73.13;47.40;;;;;;;;;;5198335;28;20026;-80
2023/01/25 11:17:00;;;;;;;76.07;47.53;;;;;;;;;;5198051;28;20037;-78
2023/01/25 11:19:34;;;;;;;73.17;47.03;;;;;;;;;;5197495;28;20462;-78
2023/01/25 11:22:17;;;;;;;78.70;49.03;;;;;;;;;;5198561;28;20026;-78
2023/01/25 11:24:49;;;;;;;71.23;45.07;;;;;;;;;;5198066;28;20091;-81
2023/01/25 11:27:20;;;;;;;71.70;44.83;;;;;;;;;;5197521;28;20465;-79
2023/01/25 11:30:03;;;;;;;74.70;47.00;;;;;;;;;;5198570;28;20481;-79
2023/01/25 11:32:36;;;;;;;79.87;51.17;;;;;;;;;;5197223;28;20034;-80
2023/01/25 11:35:12;;;;;;;79.37;49.93;;;;;;;;;;5198258;28;20389;-79
2023/01/25 11:38:07;;;;;;;80.30;50.00;;;;;;;;;;5197987;28;20034;-79
2023/01/25 11:40:43;;;;;;;74.63;48.10;;;;;;;;;;5197487;28;20022;-79
2023/01/25 11:43:17;;;;;;;78.43;48.20;;;;;;;;;;5197972;28;20026;-79
2023/01/25 11:46:03;;;;;;;74.63;46.53;;;;;;;;;;5198187;28;20014;-79
2023/01/25 11:48:53;;;;;;;78.07;48.13;;;;;;;;;;5197623;28;20415;-79
2023/01/25 11:51:31;;;;;;;73.70;44.43;;;;;;;;;;5197804;28;20033;-80
2023/01/25 11:54:02;;;;;;;74.70;46.40;;;;;;;;;;5197449;28;20079;-79
2023/01/25 11:57:00;;;;;;;75.65;46.03;;;;;;;;;;5197944;28;20023;-80
2023/01/25 11:59:31;;;;;;;70.37;44.53;;;;;;;;;;5213035;28;20500;-77
2023/01/25 12:02:11;;;;;;;74.56;46.22;;;;;;;;;;5196997;28;20054;-78
2023/01/25 12:04:51;;;;;;;72.67;44.30;;;;;;;;;;5197233;28;20111;-78
2023/01/25 12:07:29;;;;;;;75.53;45.73;;;;;;;;;;5197638;28;20023;-79
2023/01/25 12:10:16;;;;;;;74.13;44.33;;;;;;;;;;5197032;28;20018;-79
2023/01/25 12:13:06;;;;;;;70.03;43.67;;;;;;;;;;5197561;28;20022;-79
2023/01/25 12:15:58;;;;;;;71.80;43.90;;;;;;;;;;5197092;28;20106;-79
2023/01/25 12:18:47;;;;;;;72.23;43.93;;;;;;;;;;5196376;28;20062;-79
2023/01/25 12:21:33;;;;;;;79.90;48.67;;;;;;;;;;5197439;28;20030;-79
2023/01/25 12:24:07;;;;;;;74.73;46.73;;;;;;;;;;5197023;28;20050;-79
2023/01/25 12:26:38;;;;;;;74.90;46.17;;;;;;;;;;5197667;28;20030;-79
2023/01/25 12:29:28;;;;;;;77.62;49.18;;;;;;;;;;5195813;28;20023;-80
2023/01/25 12:32:17;;;;;;;75.23;47.00;;;;;;;;;;5197336;28;20030;-80
2023/01/25 12:34:48;;;;;;;;;;;;;;;;;;5197681;28;20037;-79
2023/01/25 12:37:29;;;;;;;74.80;44.63;;;;;;;;;;5196827;28;19917;-79
2023/01/25 12:40:14;;;;;;;71.23;42.53;;;;;;;;;;5197051;28;20269;-80
2023/01/25 12:42:50;;;;;;;68.43;42.63;;;;;;;;;;5197437;28;20488;-80
2023/01/25 12:45:23;;;;;;;71.20;43.83;;;;;;;;;;5196630;28;20024;-80
2023/01/25 12:47:56;;;;;;;71.40;43.77;;;;;;;;;;5197340;28;20097;-80
2023/01/25 12:50:37;;;;;;;71.40;44.53;;;;;;;;;;5195951;28;20029;-80
2023/01/25 12:53:18;;;;;;;70.47;43.90;;;;;;;;;;5196955;28;20101;-81
2023/01/25 12:55:50;;;;;;;78.30;47.20;;;;;;;;;;5196754;28;20054;-80
2023/01/25 12:58:29;;;;;;;72.63;44.30;;;;;;;;;;5196207;28;20087;-81
2023/01/25 13:01:10;;;;;;;71.27;43.67;;;;;;;;;;5196494;28;20110;-81
2023/01/25 13:04:01;;;;;;;76.03;44.30;;;;;;;;;;5196746;28;20099;-80
2023/01/25 13:06:42;;;;;;;76.97;47.10;;;;;;;;;;5197137;28;20019;-81
2023/01/25 13:09:22;;;;;;;72.90;46.60;;;;;;;;;;5196731;28;20109;-81
2023/01/25 13:11:53;;;;;;;79.40;48.70;;;;;;;;;;5196285;28;20022;-80
2023/01/25 13:14:28;;;;;;;69.03;42.90;;;;;;;;;;5196398;28;20015;-80
2023/01/25 13:17:18;;;;;;;70.57;43.43;;;;;;;;;;5196290;28;20023;-81
2023/01/25 13:19:50;;;;;;;72.87;44.90;;;;;;;;;;5195693;28;20026;-81
2023/01/25 13:22:40;;;;;;;72.00;43.87;;;;;;;;;;5196395;28;20458;-80
2023/01/25 13:25:21;;;;;;;70.67;44.10;;;;;;;;;;5196053;28;20384;-80
2023/01/25 13:28:12;;;;;;;70.47;42.13;;;;;;;;;;5196766;28;20026;-80
2023/01/25 13:30:51;;;;;;;71.83;43.40;;;;;;;;;;5196527;28;20058;-80
2023/01/25 13:33:33;;;;;;;59.00;36.30;;;;;;;;;;5196286;28;20470;-80
2023/01/25 13:36:36;;;;;;;72.03;43.43;;;;;;;;;;5196434;28;20603;-81
2023/01/25 13:39:25;;;;;;;76.90;44.23;;;;;;;;;;5196328;28;20432;-79
2023/01/25 13:42:01;;;;;;;75.27;44.63;;;;;;;;;;5196170;28;20030;-78
2023/01/25 13:44:33;;;;;;;77.20;46.90;;;;;;;;;;5196152;28;20034;-79
2023/01/25 13:47:08;;;;;;;78.87;47.53;;;;;;;;;;5195492;28;20025;-79
2023/01/25 13:49:40;;;;;;;82.27;48.83;;;;;;;;;;5196874;28;20135;-77
2023/01/25 13:52:15;;;;;;;72.67;44.60;;;;;;;;;;5196145;28;20458;-79
2023/01/25 13:54:47;;;;;;;77.93;47.30;;;;;;;;;;5195440;28;20045;-78
2023/01/25 13:57:20;;;;;;;76.93;46.77;;;;;;;;;;5196108;28;20027;-79
2023/01/25 14:00:05;;;;;;;77.93;45.17;;;;;;;;;;5196270;28;20022;-78
2023/01/25 14:02:37;;;;;;;73.37;43.73;;;;;;;;;;5185431;28;20287;-77
2023/01/25 14:05:19;;;;;;;73.50;45.37;;;;;;;;;;5195356;28;20026;-80
2023/01/25 14:07:52;;;;;;;75.13;46.37;;;;;;;;;;5195286;28;20030;-79
2023/01/25 14:10:25;;;;;;;79.23;44.47;;;;;;;;;;5195972;28;20045;-77
2023/01/25 14:12:58;;;;;;;77.30;45.67;;;;;;;;;;5195843;28;20385;-78
2023/01/25 14:15:30;;;;;;;80.00;47.10;;;;;;;;;;5192981;28;20022;-78
2023/01/25 14:18:20;;;;;;;79.53;48.33;;;;;;;;;;5195635;28;20088;-77
2023/01/25 14:21:08;;;;;;;80.40;47.03;;;;;;;;;;5195870;28;20026;-77
2023/01/25 14:23:39;;;;;;;77.43;46.20;;;;;;;;;;5195046;28;20034;-78
2023/01/25 14:26:30;;;;;;;76.93;45.17;;;;;;;;;;5195770;28;20026;-78
2023/01/25 14:29:01;;;;;;;69.90;42.87;;;;;;;;;;5194787;28;20039;-78
2023/01/25 14:31:34;;;;;;;71.83;44.40;;;;;;;;;;5195841;28;20386;-78
2023/01/25 14:34:14;;;;;;;73.53;44.27;;;;;;;;;;5195850;28;20030;-79
2023/01/25 14:36:46;;;;;;;75.73;45.00;;;;;;;;;;5194274;28;20354;-77
2023/01/25 14:39:24;;;;;;;76.03;45.93;;;;;;;;;;5249053;28;20047;-79
2023/01/25 14:41:55;;;;;;;83.83;48.60;;;;;;;;;;5195358;28;20026;-75
2023/01/25 14:44:27;;;;;;;76.90;46.37;;;;;;;;;;5193198;28;20041;-78
2023/01/25 14:47:17;;;;;;;79.30;47.47;;;;;;;;;;5194780;28;20030;-78
2023/01/25 14:49:48;;;;;;;78.23;46.30;;;;;;;;;;5194422;28;20386;-79
2023/01/25 14:52:23;;;;;;;82.73;48.63;;;;;;;;;;5195535;28;20072;-77
2023/01/25 14:54:58;;;;;;;81.80;48.20;;;;;;;;;;5199188;28;20076;-77
2023/01/25 14:57:33;;;;;;;76.60;45.60;;;;;;;;;;5197872;28;20029;-78
2023/01/25 15:00:05;;;;;;;75.33;45.27;;;;;;;;;;5198746;28;20046;-80
2023/01/25 15:02:38;;;;;;;85.90;50.37;;;;;;;;;;5198821;28;20078;-79